Bundaberg Airport


Codes: YBUD/BDB
Name: Bundaberg Airport
City: Bundaberg
Country: Australia
Elevation: 107 ft.
Website:
Wikipedia:

Photos at Bundaberg Airport


   Photos courtesy of SpottingLog. You can add your own sightings and photos by signing up for a free trial today.



No photos found.

Weather at Bundaberg Airport


Time (UTC)DescriptionTempratureWindCloud coverageVisibilityPressureHumidity
16-Jun-2024 00:00Few Clouds15°C13 mph, SW13%10000m1011hPa71%
16-Jun-2024 03:00Clear Sky17°C13 mph, SW9%10000m1012hPa59%
16-Jun-2024 06:00Clear Sky18°C9 mph, SW4%10000m1012hPa48%
16-Jun-2024 09:00Clear Sky14°C7 mph, SW1%10000m1015hPa56%
16-Jun-2024 12:00Clear Sky12°C7 mph, SW0%10000m1016hPa62%
16-Jun-2024 15:00Clear Sky10°C7 mph, SW0%10000m1016hPa65%
16-Jun-2024 18:00Clear Sky10°C7 mph, SW0%10000m1015hPa71%
16-Jun-2024 21:00Clear Sky10°C9 mph, SW0%10000m1016hPa74%
17-Jun-2024 00:00Clear Sky16°C13 mph, SW0%10000m1017hPa47%
17-Jun-2024 03:00Clear Sky20°C13 mph, SW0%10000m1014hPa29%
17-Jun-2024 06:00Clear Sky19°C11 mph, SW0%10000m1013hPa28%
17-Jun-2024 09:00Clear Sky12°C7 mph, SW0%10000m1016hPa44%
17-Jun-2024 12:00Clear Sky10°C9 mph, SW0%10000m1017hPa47%
17-Jun-2024 15:00Clear Sky9°C9 mph, SW0%10000m1017hPa45%
17-Jun-2024 18:00Clear Sky9°C11 mph, SW0%10000m1016hPa51%
17-Jun-2024 21:00Clear Sky8°C9 mph, SW0%10000m1017hPa58%
18-Jun-2024 00:00Clear Sky15°C11 mph, SW0%10000m1017hPa39%
18-Jun-2024 03:00Clear Sky20°C9 mph, SW0%10000m1015hPa32%
18-Jun-2024 06:00Clear Sky20°C7 mph, SW0%10000m1015hPa35%
18-Jun-2024 09:00Clear Sky13°C7 mph, SW0%10000m1017hPa52%
18-Jun-2024 12:00Clear Sky11°C7 mph, SW0%10000m1018hPa56%
18-Jun-2024 15:00Clear Sky9°C7 mph, SW0%10000m1017hPa62%
18-Jun-2024 18:00Clear Sky8°C7 mph, SW0%10000m1017hPa69%
18-Jun-2024 21:00Clear Sky7°C7 mph, SW1%10000m1019hPa73%
19-Jun-2024 00:00Clear Sky17°C7 mph, SW0%10000m1019hPa43%
19-Jun-2024 03:00Clear Sky21°C4 mph, SW0%10000m1017hPa29%
19-Jun-2024 06:00Clear Sky20°C2 mph, SW0%10000m1016hPa34%
19-Jun-2024 09:00Clear Sky14°C2 mph, W0%10000m1017hPa51%
19-Jun-2024 12:00Clear Sky11°C4 mph, W1%10000m1018hPa61%
19-Jun-2024 15:00Clear Sky10°C4 mph, SW0%10000m1018hPa58%
19-Jun-2024 18:00Clear Sky10°C4 mph, SW0%10000m1018hPa59%
19-Jun-2024 21:00Clear Sky10°C7 mph, SW0%10000m1019hPa56%
20-Jun-2024 00:00Clear Sky20°C4 mph, SW1%10000m1020hPa29%
20-Jun-2024 03:00Clear Sky23°C0 mph, N0%10000m1017hPa30%
20-Jun-2024 06:00Clear Sky21°C4 mph, NE0%10000m1016hPa39%
20-Jun-2024 09:00Clear Sky15°C4 mph, N1%10000m1019hPa58%
20-Jun-2024 12:00Clear Sky14°C4 mph, NW3%10000m1019hPa67%
20-Jun-2024 15:00Clear Sky13°C4 mph, NW7%10000m1018hPa67%
20-Jun-2024 18:00Clear Sky13°C4 mph, W7%10000m1018hPa67%
20-Jun-2024 21:00Scattered Clouds13°C4 mph, W38%10000m1020hPa65%